Time;durP1;ratioP1;P1;durP2;ratioP2;P2;SDS_P1;SDS_P2;PMS_P1;PMS_P2;Temp;Humidity;BMP_temperature;BMP_pressure;BME280_temperature;BME280_humidity;BME280_pressure;Samples;Min_cycle;Max_cycle;Signal;HPM_P1;HPM_P2
2021/09/10 00:01:57;;;;;;;;;;;;;;;21.45;80.55;100606.47;5043758;28;20015;-66
2021/09/10 00:04:24;;;;;;;;;;;;;;;21.47;80.41;100594.75;5044713;28;19921;-67
2021/09/10 00:06:51;;;;;;;;;;;;;;;21.46;80.47;100587.41;5046999;28;19925;-66
2021/09/10 00:09:18;;;;;;;;;;;;;;;21.48;80.32;100590.75;5037782;28;20008;-69
2021/09/10 00:11:44;;;;;;;;;;;;;;;21.51;80.37;100585.19;5042599;28;19928;-71
2021/09/10 00:14:11;;;;;;;;;;;;;;;21.45;80.20;100592.28;5037515;28;20007;-69
2021/09/10 00:16:38;;;;;;;;;;;;;;;21.49;80.15;100581.84;5036955;28;19961;-71
2021/09/10 00:19:05;;;;;;;;;;;;;;;21.70;80.14;100593.09;5039858;28;19921;-71
2021/09/10 00:21:31;;;;;;;;;;;;;;;21.87;79.75;100580.66;5046746;28;20341;-72
2021/09/10 00:23:58;;;;;;;;;;;;;;;21.96;79.68;100578.53;5043633;28;20031;-72
2021/09/10 00:26:25;;;;;;;;;;;;;;;22.08;79.12;100579.69;5042183;28;20019;-74
2021/09/10 00:28:51;;;;;;;;;;;;;;;21.95;79.52;100570.38;5042869;28;19924;-73
2021/09/10 00:31:18;;;;;;;;;;;;;;;21.85;79.45;100577.38;5049708;28;20474;-69
2021/09/10 00:33:45;;;;;;;;;;;;;;;21.77;79.74;100575.47;5042355;28;19921;-72
2021/09/10 00:36:11;;;;;;;;;;;;;;;21.76;80.02;100574.63;5041446;28;20016;-69
2021/09/10 00:38:38;;;;;;;;;;;;;;;21.75;79.71;100575.00;5040388;28;20035;-76
2021/09/10 00:41:05;;;;;;;;;;;;;;;21.67;79.72;100571.06;5049363;28;20012;-77
2021/09/10 00:43:32;;;;;;;;;;;;;;;21.68;79.70;100567.06;5048679;28;20007;-78
2021/09/10 00:45:59;;;;;;;;;;;;;;;21.73;79.61;100575.34;5043492;28;19970;-69
2021/09/10 00:48:26;;;;;;;;;;;;;;;21.67;79.74;100573.91;5037730;28;20509;-66
2021/09/10 00:50:53;;;;;;;;;;;;;;;21.64;79.70;100571.81;5038340;28;20566;-69
2021/09/10 00:53:20;;;;;;;;;;;;;;;21.62;79.93;100561.97;5040425;28;19968;-69
2021/09/10 00:55:46;;;;;;;;;;;;;;;21.60;79.97;100567.16;5045585;28;20011;-69
2021/09/10 00:58:14;;;;;;;;;;;;;;;21.58;79.84;100569.56;5040115;28;20019;-77
2021/09/10 01:00:41;;;;;;;;;;;;;;;21.58;80.05;100563.88;5045066;28;19921;-78
2021/09/10 01:03:10;;;;;;;;;;;;;;;21.72;79.80;100570.03;5051117;28;20098;-77
2021/09/10 01:05:37;;;;;;;;;;;;;;;21.74;79.64;100565.66;5032810;28;20373;-74
2021/09/10 01:08:06;;;;;;;;;;;;;;;21.75;79.76;100560.78;5032761;28;20291;-70
2021/09/10 01:10:33;;;;;;;;;;;;;;;21.76;79.79;100565.28;5042018;28;20335;-69
2021/09/10 01:13:01;;;;;;;;;;;;;;;21.77;79.94;100566.94;5043008;28;19933;-68
2021/09/10 01:15:28;;;;;;;;;;;;;;;21.76;79.89;100559.59;5051203;28;19990;-67
2021/09/10 01:17:55;;;;;;;;;;;;;;;21.79;79.74;100560.91;5036003;28;20754;-71
2021/09/10 01:20:21;;;;;;;;;;;;;;;21.81;79.84;100567.88;5047304;28;20460;-68
2021/09/10 01:22:48;;;;;;;;;;;;;;;21.89;79.74;100561.25;5036759;28;20016;-74
2021/09/10 01:25:17;;;;;;;;;;;;;;;22.06;79.50;100565.03;5042476;28;20359;-72
2021/09/10 01:27:46;;;;;;;;;;;;;;;21.98;79.18;100566.78;5045155;28;19920;-72
2021/09/10 01:30:14;;;;;;;;;;;;;;;21.83;79.18;100564.69;5039911;28;19968;-72
2021/09/10 01:32:41;;;;;;;;;;;;;;;21.77;79.43;100564.91;5045315;28;19920;-69
2021/09/10 01:35:08;;;;;;;;;;;;;;;21.73;79.35;100563.16;5045049;28;19921;-68
2021/09/10 01:37:35;;;;;;;;;;;;;;;21.67;79.55;100558.88;5042578;28;19975;-68
2021/09/10 01:40:03;;;;;;;;;;;;;;;21.58;79.56;100555.34;5040113;28;20031;-72
2021/09/10 01:42:30;;;;;;;;;;;;;;;21.51;79.87;100555.94;5044134;28;20019;-70
2021/09/10 01:44:57;;;;;;;;;;;;;;;21.59;79.97;100554.97;5042793;28;19968;-72
2021/09/10 01:47:23;;;;;;;;;;;;;;;21.63;79.88;100552.25;5038625;28;20008;-68
2021/09/10 01:49:50;;;;;;;;;;;;;;;21.59;79.69;100559.84;5074563;28;20003;-69
2021/09/10 01:52:17;;;;;;;;;;;;;;;21.57;79.81;100559.34;5039756;28;20024;-71
2021/09/10 01:54:44;;;;;;;;;;;;;;;21.52;79.69;100558.41;5037916;28;20011;-69
2021/09/10 01:57:11;;;;;;;;;;;;;;;21.48;79.90;100551.78;5039598;28;19972;-68
2021/09/10 01:59:37;;;;;;;;;;;;;;;21.43;80.02;100559.69;5036270;28;19967;-62
2021/09/10 02:02:04;;;;;;;;;;;;;;;21.40;80.21;100555.59;5044535;28;19920;-69
2021/09/10 02:04:31;;;;;;;;;;;;;;;21.36;79.91;100557.44;5044483;28;19920;-75
2021/09/10 02:06:58;;;;;;;;;;;;;;;21.32;79.87;100556.47;5039471;28;20016;-74
2021/09/10 02:09:24;;;;;;;;;;;;;;;21.27;80.09;100545.34;5067486;28;20343;-75
2021/09/10 02:11:51;;;;;;;;;;;;;;;21.23;80.04;100555.75;5044057;28;19929;-75
2021/09/10 02:14:18;;;;;;;;;;;;;;;21.20;79.90;100547.94;5043125;28;20020;-72
2021/09/10 02:16:44;;;;;;;;;;;;;;;21.19;79.71;100554.78;5034571;28;20439;-67
2021/09/10 02:19:11;;;;;;;;;;;;;;;21.16;79.67;100555.50;5038812;28;20019;-73
2021/09/10 02:21:38;;;;;;;;;;;;;;;21.14;79.89;100553.03;5044058;28;20036;-75
2021/09/10 02:24:04;;;;;;;;;;;;;;;21.12;80.01;100549.69;5031543;28;20016;-68
2021/09/10 02:26:32;;;;;;;;;;;;;;;21.15;80.29;100551.00;5036369;28;20003;-75
2021/09/10 02:28:58;;;;;;;;;;;;;;;21.16;80.16;100546.97;5034251;28;20016;-75
2021/09/10 02:31:25;;;;;;;;;;;;;;;21.13;80.19;100544.84;5040077;28;19927;-72
2021/09/10 02:33:52;;;;;;;;;;;;;;;21.10;80.39;100546.38;5041745;28;19920;-71
2021/09/10 02:36:19;;;;;;;;;;;;;;;21.15;80.77;100545.31;5036802;28;20444;-78
2021/09/10 02:38:45;;;;;;;;;;;;;;;21.19;80.48;100551.94;5034624;28;20011;-68
2021/09/10 02:41:12;;;;;;;;;;;;;;;21.18;80.62;100553.16;5038747;28;19960;-74
2021/09/10 02:43:40;;;;;;;;;;;;;;;21.14;80.51;100552.19;5038093;28;19995;-72
2021/09/10 02:46:06;;;;;;;;;;;;;;;21.17;80.62;100551.50;5040510;28;19996;-71
2021/09/10 02:48:33;;;;;;;;;;;;;;;21.27;80.59;100545.34;5042509;28;19921;-71
2021/09/10 02:51:01;;;;;;;;;;;;;;;21.23;80.41;100545.22;5045150;28;20621;-73
2021/09/10 02:53:27;;;;;;;;;;;;;;;21.19;80.52;100546.28;5048447;28;20127;-73
2021/09/10 02:55:56;;;;;;;;;;;;;;;21.19;80.46;100549.13;5038594;28;19928;-71
2021/09/10 02:58:23;;;;;;;;;;;;;;;21.40;80.45;100541.38;5037507;28;19953;-70
2021/09/10 03:00:49;;;;;;;;;;;;;;;21.51;80.12;100533.22;5043183;28;19959;-70
2021/09/10 03:03:16;;;;;;;;;;;;;;;21.70;80.14;100543.97;5031762;28;20008;-74
2021/09/10 03:05:43;;;;;;;;;;;;;;;21.68;79.80;100546.34;5038286;28;20389;-74
2021/09/10 03:08:10;;;;;;;;;;;;;;;21.50;79.53;100538.06;5045437;28;19975;-68
2021/09/10 03:10:37;;;;;;;;;;;;;;;21.37;79.60;100550.59;5035189;28;20046;-72
2021/09/10 03:13:03;;;;;;;;;;;;;;;21.32;79.76;100547.94;5039018;28;20336;-72
2021/09/10 03:15:30;;;;;;;;;;;;;;;21.39;79.77;100541.72;5033446;28;19971;-70
2021/09/10 03:17:56;;;;;;;;;;;;;;;21.37;79.75;100539.25;5048500;28;20020;-71
2021/09/10 03:20:23;;;;;;;;;;;;;;;21.41;79.45;100540.19;5045307;28;19920;-72
2021/09/10 03:22:50;;;;;;;;;;;;;;;21.39;79.59;100538.88;5050452;28;20380;-73
2021/09/10 03:25:17;;;;;;;;;;;;;;;21.39;79.49;100541.72;5039982;28;20023;-73
2021/09/10 03:27:43;;;;;;;;;;;;;;;21.51;79.17;100541.72;5043538;28;20015;-69
2021/09/10 03:30:10;;;;;;;;;;;;;;;21.47;79.04;100538.78;5066537;28;19966;-72
2021/09/10 03:32:37;;;;;;;;;;;;;;;21.36;79.28;100537.56;5045700;28;20417;-70
2021/09/10 03:35:04;;;;;;;;;;;;;;;21.20;79.18;100545.13;5040531;28;19949;-72
2021/09/10 03:37:30;;;;;;;;;;;;;;;21.08;79.51;100540.22;5041847;28;20307;-67
2021/09/10 03:39:57;;;;;;;;;;;;;;;21.08;79.95;100542.25;5049394;28;19924;-66
2021/09/10 03:42:24;;;;;;;;;;;;;;;21.11;79.98;100547.22;5035784;28;19956;-67
2021/09/10 03:44:51;;;;;;;;;;;;;;;21.09;80.09;100538.22;5042709;28;20019;-65
2021/09/10 03:47:17;;;;;;;;;;;;;;;21.06;80.36;100539.75;5038794;28;19932;-65
2021/09/10 03:49:44;;;;;;;;;;;;;;;21.14;80.46;100546.50;5043889;28;19964;-70
2021/09/10 03:52:11;;;;;;;;;;;;;;;21.11;80.32;100539.53;5044973;28;20027;-70
2021/09/10 03:54:37;;;;;;;;;;;;;;;21.10;80.43;100546.38;5029844;28;20021;-72
2021/09/10 03:57:04;;;;;;;;;;;;;;;21.09;80.43;100539.03;5036111;28;20015;-67
2021/09/10 03:59:31;;;;;;;;;;;;;;;21.05;80.06;100538.91;5034412;28;19959;-70
2021/09/10 04:01:58;;;;;;;;;;;;;;;21.03;80.46;100548.97;5033461;28;19939;-74
2021/09/10 04:04:25;;;;;;;;;;;;;;;20.99;80.23;100540.34;5031514;28;19940;-73
2021/09/10 04:06:51;;;;;;;;;;;;;;;21.02;80.43;100533.94;5042150;28;19927;-74
2021/09/10 04:09:18;;;;;;;;;;;;;;;21.04;80.31;100542.13;5036248;28;19999;-73
2021/09/10 04:11:45;;;;;;;;;;;;;;;20.99;80.25;100540.34;5050144;28;20021;-70
2021/09/10 04:14:11;;;;;;;;;;;;;;;21.00;80.08;100536.31;5044805;28;19924;-70
2021/09/10 04:16:38;;;;;;;;;;;;;;;20.99;80.25;100531.81;5040876;28;19929;-68
2021/09/10 04:19:05;;;;;;;;;;;;;;;21.04;79.90;100534.41;5043074;28;19920;-70
2021/09/10 04:21:31;;;;;;;;;;;;;;;21.03;80.04;100527.09;5045509;28;19927;-69
2021/09/10 04:23:58;;;;;;;;;;;;;;;20.94;79.94;100531.22;5044122;28;20012;-70
2021/09/10 04:26:25;;;;;;;;;;;;;;;20.95;80.45;100532.84;5067536;28;20000;-69
2021/09/10 04:28:51;;;;;;;;;;;;;;;21.01;79.90;100534.28;5040619;28;20012;-69
2021/09/10 04:31:18;;;;;;;;;;;;;;;20.99;79.91;100531.81;5047052;28;20047;-69
2021/09/10 04:33:46;;;;;;;;;;;;;;;21.15;80.01;100536.81;5044316;28;19967;-70
2021/09/10 04:36:13;;;;;;;;;;;;;;;21.22;79.87;100537.06;5040931;28;20023;-71
2021/09/10 04:38:40;;;;;;;;;;;;;;;21.21;79.26;100538.25;5042699;28;20007;-69
2021/09/10 04:41:07;;;;;;;;;;;;;;;21.21;79.67;100546.75;5044095;28;19980;-70
2021/09/10 04:43:34;;;;;;;;;;;;;;;21.17;79.54;100535.28;5052019;28;19960;-68
2021/09/10 04:46:01;;;;;;;;;;;;;;;21.08;79.52;100539.41;5041812;28;20361;-68
2021/09/10 04:48:28;;;;;;;;;;;;;;;21.04;79.91;100542.13;5036442;28;19940;-69
2021/09/10 04:50:54;;;;;;;;;;;;;;;21.01;79.79;100540.81;5038374;28;19920;-70
2021/09/10 04:53:21;;;;;;;;;;;;;;;21.10;80.21;100539.88;5039745;28;20012;-82
2021/09/10 04:55:48;;;;;;;;;;;;;;;21.17;80.11;100540.13;5036042;28;19924;-75
2021/09/10 04:58:15;;;;;;;;;;;;;;;21.32;80.03;100539.44;5039829;28;20354;-75
2021/09/10 05:00:42;;;;;;;;;;;;;;;21.27;79.58;100539.69;5042380;28;19960;-76
2021/09/10 05:03:09;;;;;;;;;;;;;;;21.17;79.50;100542.97;5042953;28;19996;-78
2021/09/10 05:05:36;;;;;;;;;;;;;;;21.16;79.74;100546.97;5073636;28;20388;-78
2021/09/10 05:08:02;;;;;;;;;;;;;;;21.04;79.74;100551.47;5045132;28;20031;-78
2021/09/10 05:10:29;;;;;;;;;;;;;;;21.10;80.25;100545.56;5044535;28;20008;-77
2021/09/10 05:12:56;;;;;;;;;;;;;;;21.14;80.04;100540.84;5036730;28;20019;-77
2021/09/10 05:15:22;;;;;;;;;;;;;;;21.21;79.72;100543.91;5042096;28;20027;-78
2021/09/10 05:17:49;;;;;;;;;;;;;;;21.29;79.91;100545.81;5032288;28;20023;-70
2021/09/10 05:20:16;;;;;;;;;;;;;;;21.39;79.34;100536.84;5037368;28;20015;-72
2021/09/10 05:22:42;;;;;;;;;;;;;;;21.34;79.25;100544.78;5051360;28;20496;-76
2021/09/10 05:25:09;;;;;;;;;;;;;;;21.28;79.29;100547.00;5034681;28;20019;-69
2021/09/10 05:27:36;;;;;;;;;;;;;;;21.22;78.95;100559.78;5046531;28;19960;-67
2021/09/10 05:30:03;;;;;;;;;;;;;;;21.15;79.19;100551.81;5039602;28;20012;-71
2021/09/10 05:32:30;;;;;;;;;;;;;;;21.17;79.58;100554.34;5040601;28;20008;-68
2021/09/10 05:34:56;;;;;;;;;;;;;;;20.87;79.35;100520.44;5048633;28;20007;-65
2021/09/10 05:37:23;;;;;;;;;;;;;;;21.06;79.48;100551.94;5050122;28;20011;-67
2021/09/10 05:39:50;;;;;;;;;;;;;;;21.11;79.58;100550.88;5042626;28;20015;-68
2021/09/10 05:42:16;;;;;;;;;;;;;;;21.16;79.67;100547.81;5050820;28;19975;-68
2021/09/10 05:44:43;;;;;;;;;;;;;;;21.26;79.78;100543.69;5040602;28;19952;-71
2021/09/10 05:47:10;;;;;;;;;;;;;;;21.24;79.11;100541.19;5041067;28;19948;-76
2021/09/10 05:49:36;;;;;;;;;;;;;;;21.14;79.12;100540.84;5037774;28;20135;-69
2021/09/10 05:52:03;;;;;;;;;;;;;;;21.19;79.46;100543.44;5044995;28;19983;-79
2021/09/10 05:54:30;;;;;;;;;;;;;;;21.33;79.51;100541.06;5045908;28;20321;-67
2021/09/10 05:56:56;;;;;;;;;;;;;;;21.35;78.87;100541.59;5042405;28;20028;-68
2021/09/10 05:59:23;;;;;;;;;;;;;;;21.27;79.06;100542.50;5033711;28;20015;-62
2021/09/10 06:01:50;;;;;;;;;;;;;;;21.32;79.43;100544.28;5037356;28;20012;-62
2021/09/10 06:04:17;;;;;;;;;;;;;;;21.31;79.18;100540.63;5040216;28;19925;-62
2021/09/10 06:06:43;;;;;;;;;;;;;;;21.13;79.05;100550.50;5044268;28;19968;-63
2021/09/10 06:09:10;;;;;;;;;;;;;;;20.87;78.87;100537.47;5049305;28;19925;-62
2021/09/10 06:11:37;;;;;;;;;;;;;;;20.75;79.29;100541.09;5039965;28;20016;-62
2021/09/10 06:14:03;;;;;;;;;;;;;;;20.69;79.56;100547.34;5041247;28;19949;-63
2021/09/10 06:16:30;;;;;;;;;;;;;;;20.74;80.11;100555.63;5042453;28;20487;-65
2021/09/10 06:18:57;;;;;;;;;;;;;;;20.71;80.01;100557.16;5042220;28;19983;-68
2021/09/10 06:21:24;;;;;;;;;;;;;;;20.68;79.72;100557.00;5039999;28;20019;-66
2021/09/10 06:23:52;;;;;;;;;;;;;;;20.64;79.93;100554.03;5046045;28;20062;-61
2021/09/10 06:26:19;;;;;;;;;;;;;;;20.68;80.11;100562.69;5030789;28;20016;-61
2021/09/10 06:28:45;;;;;;;;;;;;;;;20.69;80.22;100570.03;5033704;28;20345;-62
2021/09/10 06:31:12;;;;;;;;;;;;;;;20.72;79.89;100572.19;5031300;28;20007;-61
2021/09/10 06:33:39;;;;;;;;;;;;;;;20.75;80.03;100579.97;5030740;28;19927;-61
2021/09/10 06:36:05;;;;;;;;;;;;;;;20.72;80.19;100580.69;5034929;28;20579;-61
2021/09/10 06:38:32;;;;;;;;;;;;;;;20.83;80.36;100587.59;5040560;28;20010;-61
2021/09/10 06:40:59;;;;;;;;;;;;;;;20.90;80.17;100581.34;5037281;28;19927;-61
2021/09/10 06:43:25;;;;;;;;;;;;;;;20.83;80.18;100588.41;5045439;28;19920;-61
2021/09/10 06:45:52;;;;;;;;;;;;;;;20.92;80.34;100596.88;5034338;28;19921;-61
2021/09/10 06:48:19;;;;;;;;;;;;;;;20.89;80.39;100596.69;5043572;28;19933;-61
2021/09/10 06:50:46;;;;;;;;;;;;;;;20.93;80.48;100600.53;5030525;28;20460;-61
2021/09/10 06:53:12;;;;;;;;;;;;;;;20.90;80.20;100596.38;5031946;28;19972;-62
2021/09/10 06:55:39;;;;;;;;;;;;;;;21.09;80.33;100597.84;5047372;28;19999;-61
2021/09/10 06:58:06;;;;;;;;;;;;;;;21.21;80.02;100597.88;5040145;28;20365;-62
2021/09/10 07:00:32;;;;;;;;;;;;;;;21.25;79.71;100596.00;5039006;28;20027;-62
2021/09/10 07:02:59;;;;;;;;;;;;;;;21.18;79.61;100604.25;5068612;28;20412;-79
2021/09/10 07:05:26;;;;;;;;;;;;;;;21.23;80.41;100592.66;5043235;28;19924;-66
2021/09/10 07:07:53;;;;;;;;;;;;;;;21.16;79.98;100606.59;5034262;28;20373;-73
2021/09/10 07:10:21;;;;;;;;;;;;;;;21.10;79.98;100608.84;5039891;28;19960;-71
2021/09/10 07:13:34;;;;;;;9.82;6.07;;;;;;;21.03;80.64;100620.78;5096959;27;20409;-64
2021/09/10 07:16:02;;;;;;;14.00;6.75;;;;;;;20.98;80.39;100612.47;5096335;28;20102;-63
2021/09/10 07:18:29;;;;;;;12.50;5.00;;;;;;;21.05;80.42;100626.09;5097042;28;20131;-63
2021/09/10 07:20:56;;;;;;;9.98;4.95;;;;;;;21.03;80.43;100626.47;5093591;28;20458;-63
2021/09/10 07:23:23;;;;;;;16.42;4.82;;;;;;;20.99;80.37;100631.19;5100887;28;20094;-63
2021/09/10 07:25:49;;;;;;;20.50;6.03;;;;;;;20.84;80.44;100637.50;5105670;28;20127;-63
2021/09/10 07:28:16;;;;;;;10.10;4.70;;;;;;;20.91;80.43;100634.91;5108222;28;20496;-62
2021/09/10 07:30:43;;;;;;;14.60;6.63;;;;;;;20.85;80.47;100642.00;5096424;28;20458;-62
2021/09/10 07:33:10;;;;;;;12.27;6.30;;;;;;;20.87;80.72;100624.63;5094355;28;20040;-63
2021/09/10 07:35:39;;;;;;;13.00;6.03;;;;;;;20.87;80.30;100642.47;5110299;28;20049;-63
2021/09/10 07:38:05;;;;;;;8.45;5.10;;;;;;;20.81;80.11;100643.88;5109445;28;20555;-62
2021/09/10 07:40:32;;;;;;;11.90;6.07;;;;;;;20.88;80.29;100641.28;5096811;28;20075;-63
2021/09/10 07:42:59;;;;;;;18.75;6.93;;;;;;;20.92;80.31;100652.78;5094462;28;20047;-63
2021/09/10 07:45:26;;;;;;;17.55;6.95;;;;;;;20.87;80.36;100650.16;5107794;28;20131;-63
2021/09/10 07:47:53;;;;;;;16.15;7.28;;;;;;;20.66;80.04;100638.84;5101743;28;20040;-63
2021/09/10 07:50:20;;;;;;;18.63;6.78;;;;;;;20.74;79.85;100650.09;5098782;28;20043;-64
2021/09/10 07:52:47;;;;;;;13.38;6.68;;;;;;;20.69;80.01;100632.47;5092236;28;20503;-64
2021/09/10 07:55:14;;;;;;;17.40;7.75;;;;;;;20.80;80.11;100657.22;5096116;28;20079;-65
2021/09/10 07:57:41;;;;;;;13.07;6.25;;;;;;;20.90;80.54;100655.97;5088860;28;20080;-64
2021/09/10 08:00:08;;;;;;;14.43;7.80;;;;;;;21.01;80.45;100645.03;5097885;28;20073;-64
2021/09/10 08:02:36;;;;;;;18.23;8.50;;;;;;;21.52;80.72;100663.53;5093657;28;20469;-63
2021/09/10 08:05:04;;;;;;;15.18;7.35;;;;;;;22.17;80.49;100663.75;5092527;28;20051;-63
2021/09/10 08:07:31;;;;;;;17.15;7.93;;;;;;;22.48;79.93;100663.09;5098497;28;20403;-64
2021/09/10 08:10:00;;;;;;;16.50;10.18;;;;;;;22.71;79.81;100666.25;5094423;28;20044;-64
2021/09/10 08:12:28;;;;;;;16.50;9.98;;;;;;;22.90;79.94;100661.91;5103954;28;20090;-62
2021/09/10 08:14:55;;;;;;;23.05;13.88;;;;;;;23.03;79.37;100660.72;5090558;28;20040;-62
2021/09/10 08:17:22;;;;;;;14.40;8.40;;;;;;;23.27;78.83;100676.84;5092768;28;20139;-63
2021/09/10 08:19:50;;;;;;;13.57;7.53;;;;;;;23.73;78.21;100671.66;5089707;28;20071;-62
2021/09/10 08:22:17;;;;;;;10.90;6.07;;;;;;;24.29;76.22;100660.00;5095764;28;20047;-64
2021/09/10 08:24:56;;;;;;;8.68;5.45;;;;;;;24.50;75.72;100664.59;5100998;28;20461;-63
2021/09/10 08:27:25;;;;;;;13.17;5.20;;;;;;;24.54;74.28;100676.91;5093640;28;20044;-67
2021/09/10 08:29:53;;;;;;;12.23;5.22;;;;;;;25.10;74.35;100678.56;5082648;28;20048;-67
2021/09/10 08:32:20;;;;;;;10.38;4.82;;;;;;;25.09;73.09;100665.44;5082882;28;20060;-66
2021/09/10 08:34:47;;;;;;;10.90;4.57;;;;;;;25.12;73.64;100691.28;5082615;28;20068;-66
2021/09/10 08:37:14;;;;;;;10.25;5.85;;;;;;;25.04;72.39;100686.59;5077827;28;20190;-68
2021/09/10 08:39:41;;;;;;;7.45;5.00;;;;;;;24.99;72.59;100684.00;5081949;28;20048;-69
2021/09/10 08:42:08;;;;;;;11.05;6.28;;;;;;;24.87;72.56;100690.72;5081688;28;20441;-69
2021/09/10 08:44:39;;;;;;;10.45;4.32;;;;;;;24.92;72.19;100689.56;5073877;28;20076;-69
2021/09/10 08:47:07;;;;;;;6.63;3.65;;;;;;;24.92;71.83;100704.69;5082798;28;20535;-69
2021/09/10 08:49:34;;;;;;;9.32;5.30;;;;;;;24.48;71.85;100687.81;5080808;28;20128;-69
2021/09/10 08:52:01;;;;;;;8.88;4.53;;;;;;;24.12;71.63;100700.34;5089609;28;20516;-69
2021/09/10 08:54:28;;;;;;;11.75;4.70;;;;;;;23.86;72.09;100693.19;5076521;28;20120;-70
2021/09/10 08:56:55;;;;;;;10.10;4.32;;;;;;;23.73;71.87;100694.47;5075136;28;20076;-70
2021/09/10 08:59:22;;;;;;;6.53;4.00;;;;;;;23.61;72.42;100706.72;5086153;28;20044;-70
2021/09/10 09:01:54;;;;;;;6.88;3.85;;;;;;;23.34;72.12;100699.84;5076449;28;20131;-69
2021/09/10 09:04:31;;;;;;;6.75;3.80;;;;;;;23.12;72.83;100703.28;5073699;28;20520;-69
2021/09/10 09:07:00;;;;;;;10.15;4.43;;;;;;;22.74;73.73;100715.97;5072347;28;20083;-70
2021/09/10 09:09:42;;;;;;;11.33;4.07;;;;;;;22.51;73.87;100709.94;5073237;28;20075;-70
2021/09/10 09:12:22;;;;;;;9.70;4.63;;;;;;;22.32;74.23;100719.06;5074341;28;20101;-70
2021/09/10 09:14:55;;;;;;;12.85;4.57;;;;;;;21.84;74.87;100706.47;5080580;28;20044;-70
2021/09/10 09:17:25;;;;;;;10.70;4.72;;;;;;;21.76;75.33;100721.63;5082715;28;20109;-65
2021/09/10 09:20:21;;;;;;;12.15;4.95;;;;;;;21.64;76.41;100715.91;5082532;28;20147;-67
2021/09/10 09:22:52;;;;;;;8.57;5.18;;;;;;;21.69;76.22;100721.38;5081914;28;20480;-66
2021/09/10 09:25:22;;;;;;;11.07;6.07;;;;;;;21.68;76.11;100716.88;5085951;28;20041;-65
2021/09/10 09:27:50;;;;;;;10.75;4.80;;;;;;;21.65;76.26;100732.63;5084608;28;20519;-65
2021/09/10 09:30:36;;;;;;;11.65;4.32;;;;;;;21.67;76.77;100727.38;5072324;28;20488;-64
2021/09/10 09:33:03;;;;;;;5.95;3.88;;;;;;;21.68;76.31;100736.78;5076396;28;20071;-65
2021/09/10 09:35:32;;;;;;;14.07;5.15;;;;;;;21.70;76.46;100740.06;5072603;28;20072;-64
2021/09/10 09:38:11;;;;;;;13.00;5.55;;;;;;;21.58;77.15;100738.03;5092430;28;20083;-64
2021/09/10 09:40:38;;;;;;;11.57;4.95;;;;;;;21.60;76.97;100732.00;5082154;28;20068;-65
2021/09/10 09:43:23;;;;;;;13.70;5.75;;;;;;;21.51;77.73;100749.16;5086920;28;20079;-66
2021/09/10 09:45:52;;;;;;;8.60;5.05;;;;;;;21.47;76.93;100743.34;5084492;28;20078;-66
2021/09/10 09:48:21;;;;;;;10.43;4.68;;;;;;;21.41;77.49;100744.72;5088028;28;20055;-65
2021/09/10 09:50:49;;;;;;;9.65;5.40;;;;;;;21.38;77.39;100744.59;5073874;28;20080;-63
2021/09/10 09:53:17;;;;;;;9.80;5.95;;;;;;;21.39;77.36;100752.75;5082086;28;20151;-63
2021/09/10 09:55:46;;;;;;;7.50;4.85;;;;;;;21.30;77.92;100740.63;5076223;28;20128;-64
2021/09/10 09:58:14;;;;;;;9.40;5.38;;;;;;;21.26;77.66;100751.00;5095877;28;20057;-64
2021/09/10 10:00:44;;;;;;;8.50;4.97;;;;;;;21.18;78.04;100752.75;5075812;28;20044;-64
2021/09/10 10:03:11;;;;;;;11.02;5.63;;;;;;;21.28;78.07;100752.34;5075365;28;20491;-64
2021/09/10 10:06:00;;;;;;;11.05;6.07;;;;;;;21.38;78.74;100768.16;5074591;28;20186;-64
2021/09/10 10:08:46;;;;;;;17.40;6.30;;;;;;;21.51;77.94;100771.88;5076059;28;20503;-64
2021/09/10 10:11:20;;;;;;;15.05;5.70;;;;;;;21.47;78.18;100754.72;5082128;28;20083;-64
2021/09/10 10:13:59;;;;;;;13.68;5.82;;;;;;;21.41;78.20;100761.78;5072982;28;20128;-69
2021/09/10 10:16:32;;;;;;;6.40;3.65;;;;;;;21.29;78.52;100758.84;5079055;28;20048;-75
2021/09/10 10:18:59;;;;;;;9.32;3.78;;;;;;;21.16;78.96;100771.31;5078057;28;20138;-74
2021/09/10 10:22:04;;;;;;;9.40;2.97;;;;;;;21.08;79.66;100763.72;5083812;28;20452;-73
2021/09/10 10:24:43;;;;;;;6.18;3.08;;;;;;;20.89;79.42;100765.03;5071238;28;20079;-72
2021/09/10 10:27:35;;;;;;;5.47;3.70;;;;;;;20.84;79.82;100768.06;5072181;28;20044;-73
2021/09/10 10:30:09;;;;;;;14.82;3.50;;;;;;;20.73;79.31;100755.47;5081629;28;20658;-73
2021/09/10 10:32:41;;;;;;;10.20;5.07;;;;;;;20.81;79.62;100768.75;5078093;28;20544;-73
2021/09/10 10:35:40;;;;;;;8.75;3.75;;;;;;;20.90;80.13;100774.38;5078718;28;20044;-74
2021/09/10 10:38:07;;;;;;;5.83;3.77;;;;;;;20.99;80.01;100775.13;5085692;28;20115;-73
2021/09/10 10:40:42;;;;;;;14.32;4.75;;;;;;;21.09;80.07;100768.22;5079258;28;20095;-72
2021/09/10 10:43:18;;;;;;;10.40;6.72;;;;;;;21.15;79.92;100758.31;5088956;28;20076;-74
2021/09/10 10:45:45;;;;;;;10.50;5.13;;;;;;;21.20;79.79;100781.66;5073365;28;20044;-73
2021/09/10 10:48:33;;;;;;;10.07;4.60;;;;;;;21.26;80.14;100770.91;5072844;28;20072;-71
2021/09/10 10:51:24;;;;;;;9.50;4.00;;;;;;;21.34;80.25;100767.19;5079086;28;20420;-73
2021/09/10 10:53:54;;;;;;;;;;;;;;;21.51;80.55;100766.19;5084403;28;20499;-73
2021/09/10 10:56:24;;;;;;;7.07;3.65;;;;;;;21.60;79.96;100768.94;5079128;28;19962;-73
2021/09/10 10:59:15;;;;;;;9.60;4.00;;;;;;;21.72;80.58;100766.16;5090635;28;20590;-74
2021/09/10 11:02:24;;;;;;;13.48;4.40;;;;;;;21.84;80.15;100759.66;5081777;28;20123;-79
2021/09/10 11:04:59;;;;;;;8.52;2.35;;;;;;;21.92;79.09;100755.91;5080724;28;20135;-73
2021/09/10 11:07:28;;;;;;;11.77;2.40;;;;;;;21.96;78.37;100757.66;5075134;28;20080;-73
2021/09/10 11:10:07;;;;;;;6.53;2.08;;;;;;;22.10;78.92;100760.19;5079916;28;20083;-69
2021/09/10 11:12:36;;;;;;;7.15;2.22;;;;;;;22.29;78.40;100765.34;5081494;28;20165;-70
2021/09/10 11:15:21;;;;;;;4.85;2.00;;;;;;;22.54;78.66;100762.47;5078035;28;20048;-75
2021/09/10 11:17:53;;;;;;;7.63;2.00;;;;;;;22.76;77.06;100761.13;5076522;28;20484;-76
2021/09/10 11:20:42;;;;;;;5.63;2.25;;;;;;;22.45;77.78;100678.03;5086716;28;20051;-75
2021/09/10 11:23:11;;;;;;;5.38;2.38;;;;;;;23.09;76.59;100755.28;5081477;28;20119;-70
2021/09/10 11:25:50;;;;;;;5.55;1.90;;;;;;;23.19;77.41;100754.78;5087903;28;20567;-66
2021/09/10 11:28:18;;;;;;;8.60;2.33;;;;;;;23.30;76.87;100755.09;5077043;28;20078;-71
2021/09/10 11:30:48;;;;;;;7.20;2.17;;;;;;;23.42;76.23;100753.03;5081431;28;20182;-70
2021/09/10 11:33:16;;;;;;;10.27;2.80;;;;;;;23.46;75.57;100752.31;5076409;28;20051;-69
2021/09/10 11:35:43;;;;;;;7.13;2.58;;;;;;;23.39;75.90;100762.31;5079667;28;20123;-70
2021/09/10 11:38:13;;;;;;;5.95;3.30;;;;;;;23.30;75.55;100750.22;5077519;28;20128;-70
2021/09/10 11:40:44;;;;;;;;;;;;;;;23.37;77.77;100753.28;5073875;28;20072;-70
2021/09/10 11:43:10;;;;;;;6.30;2.78;;;;;;;23.51;76.53;100767.09;5073542;28;20006;-70
2021/09/10 11:45:44;;;;;;;3.72;2.67;;;;;;;23.67;76.40;100761.47;5084910;28;20531;-71
2021/09/10 11:48:17;;;;;;;5.68;2.90;;;;;;;23.83;76.23;100744.41;5073908;28;20049;-70
2021/09/10 11:50:45;;;;;;;10.60;2.53;;;;;;;24.21;75.48;100760.09;5071456;28;20127;-71
2021/09/10 11:53:14;;;;;;;6.25;2.63;;;;;;;24.58;75.01;100746.34;5074827;28;20841;-75
2021/09/10 11:56:01;;;;;;;4.90;2.97;;;;;;;24.84;75.82;100742.88;5073434;28;20049;-73
2021/09/10 11:58:34;;;;;;;4.25;2.20;;;;;;;24.87;75.42;100736.41;5081574;28;20087;-71
2021/09/10 12:01:14;;;;;;;9.43;3.35;;;;;;;24.92;75.65;100743.84;5085448;28;20067;-73
2021/09/10 12:03:47;;;;;;;8.00;3.35;;;;;;;24.96;74.53;100739.06;5086207;28;20040;-72
2021/09/10 12:06:24;;;;;;;5.03;2.70;;;;;;;24.97;74.86;100732.97;5087568;28;20040;-75
2021/09/10 12:09:16;;;;;;;4.32;2.15;;;;;;;24.97;74.91;100729.28;5088055;28;20086;-74
2021/09/10 12:12:01;;;;;;;5.90;2.85;;;;;;;24.95;75.08;100731.69;5088619;28;20052;-74
2021/09/10 12:14:31;;;;;;;6.45;2.42;;;;;;;25.02;73.68;100726.13;5079310;28;20113;-71